sensor_id;sensor_type;location;lat;lon;timestamp;pressure;altitude;pressure_sealevel;temperature;humidity
48527;BME280;34317;51.660;5.824;2024-03-29T00:01:26;99106.59;;;12.76;46.28
48527;BME280;34317;51.660;5.824;2024-03-29T00:03:53;99104.91;;;12.75;46.14
48527;BME280;34317;51.660;5.824;2024-03-29T00:06:19;99108.53;;;12.74;46.07
48527;BME280;34317;51.660;5.824;2024-03-29T00:08:45;99103.47;;;12.71;46.19
48527;BME280;34317;51.660;5.824;2024-03-29T00:11:12;99110.72;;;12.69;46.21
48527;BME280;34317;51.660;5.824;2024-03-29T00:13:38;99103.97;;;12.64;46.25
48527;BME280;34317;51.660;5.824;2024-03-29T00:16:04;99098.06;;;12.61;46.39
48527;BME280;34317;51.660;5.824;2024-03-29T00:18:31;99095.75;;;12.56;46.39
48527;BME280;34317;51.660;5.824;2024-03-29T00:20:57;99094.34;;;12.52;46.52
48527;BME280;34317;51.660;5.824;2024-03-29T00:23:23;99088.44;;;12.49;46.47
48527;BME280;34317;51.660;5.824;2024-03-29T00:25:49;99088.69;;;12.45;46.60
48527;BME280;34317;51.660;5.824;2024-03-29T00:28:15;99088.94;;;12.42;46.56
48527;BME280;34317;51.660;5.824;2024-03-29T00:30:41;99100.66;;;12.40;46.68
48527;BME280;34317;51.660;5.824;2024-03-29T00:33:08;99104.25;;;12.39;46.73
48527;BME280;34317;51.660;5.824;2024-03-29T00:35:34;99111.50;;;12.37;46.71
48527;BME280;34317;51.660;5.824;2024-03-29T00:38:00;99110.91;;;12.33;46.78
48527;BME280;34317;51.660;5.824;2024-03-29T00:40:26;99108.38;;;12.32;46.82
48527;BME280;34317;51.660;5.824;2024-03-29T00:42:52;99120.94;;;12.30;47.03
48527;BME280;34317;51.660;5.824;2024-03-29T00:45:20;99113.94;;;12.29;46.90
48527;BME280;34317;51.660;5.824;2024-03-29T00:47:46;99114.19;;;12.25;47.03
48527;BME280;34317;51.660;5.824;2024-03-29T00:50:12;99109.13;;;12.22;47.02
48527;BME280;34317;51.660;5.824;2024-03-29T00:52:38;99112.75;;;12.21;47.14
48527;BME280;34317;51.660;5.824;2024-03-29T00:55:05;99112.97;;;12.18;47.12
48527;BME280;34317;51.660;5.824;2024-03-29T00:57:31;99118.56;;;12.15;47.18
48527;BME280;34317;51.660;5.824;2024-03-29T00:59:57;99120.47;;;12.13;47.27
48527;BME280;34317;51.660;5.824;2024-03-29T01:02:23;99126.03;;;12.10;47.37
48527;BME280;34317;51.660;5.824;2024-03-29T01:04:50;99122.66;;;12.08;47.30
48527;BME280;34317;51.660;5.824;2024-03-29T01:07:17;99114.81;;;12.06;47.30
48527;BME280;34317;51.660;5.824;2024-03-29T01:09:44;99119.28;;;12.06;47.39
48527;BME280;34317;51.660;5.824;2024-03-29T01:12:10;99123.88;;;12.04;47.48
48527;BME280;34317;51.660;5.824;2024-03-29T01:14:37;99123.13;;;12.02;47.42
48527;BME280;34317;51.660;5.824;2024-03-29T01:17:03;99116.13;;;12.01;47.51
48527;BME280;34317;51.660;5.824;2024-03-29T01:19:30;99125.06;;;12.00;47.56
48527;BME280;34317;51.660;5.824;2024-03-29T01:21:56;99129.63;;;11.98;47.69
48527;BME280;34317;51.660;5.824;2024-03-29T01:24:22;99116.34;;;11.98;47.72
48527;BME280;34317;51.660;5.824;2024-03-29T01:26:49;99112.88;;;11.97;47.62
48527;BME280;34317;51.660;5.824;2024-03-29T01:29:15;99105.03;;;11.96;47.60
48527;BME280;34317;51.660;5.824;2024-03-29T01:31:42;99106.00;;;11.95;47.67
48527;BME280;34317;51.660;5.824;2024-03-29T01:34:08;99102.38;;;11.96;47.82
48527;BME280;34317;51.660;5.824;2024-03-29T01:36:34;99107.69;;;11.96;47.81
48527;BME280;34317;51.660;5.824;2024-03-29T01:39:01;99097.06;;;11.96;47.84
48527;BME280;34317;51.660;5.824;2024-03-29T01:41:27;99088.16;;;11.97;47.71
48527;BME280;34317;51.660;5.824;2024-03-29T01:43:54;99089.81;;;11.98;47.73
48527;BME280;34317;51.660;5.824;2024-03-29T01:46:23;99077.53;;;11.97;47.62
48527;BME280;34317;51.660;5.824;2024-03-29T01:48:53;99077.53;;;11.97;47.77
48527;BME280;34317;51.660;5.824;2024-03-29T01:55:39;99031.72;;;11.95;47.80
48527;BME280;34317;51.660;5.824;2024-03-29T01:58:58;99038.97;;;11.93;47.93
48527;BME280;34317;51.660;5.824;2024-03-29T02:01:26;99034.63;;;11.92;47.98
48527;BME280;34317;51.660;5.824;2024-03-29T02:03:54;99025.59;;;11.94;48.15
48527;BME280;34317;51.660;5.824;2024-03-29T02:06:22;99033.41;;;11.96;48.20
48527;BME280;34317;51.660;5.824;2024-03-29T02:08:57;99036.75;;;11.98;48.30
48527;BME280;34317;51.660;5.824;2024-03-29T02:11:23;99041.84;;;12.01;48.29
48527;BME280;34317;51.660;5.824;2024-03-29T02:13:50;99062.84;;;12.04;48.11
48527;BME280;34317;51.660;5.824;2024-03-29T02:16:16;99058.25;;;12.06;48.29
48527;BME280;34317;51.660;5.824;2024-03-29T02:18:43;99063.44;;;12.07;48.19
48527;BME280;34317;51.660;5.824;2024-03-29T02:21:09;99072.94;;;12.10;48.27
48527;BME280;34317;51.660;5.824;2024-03-29T02:23:40;99078.03;;;12.13;48.24
48527;BME280;34317;51.660;5.824;2024-03-29T02:26:10;99083.06;;;12.16;48.20
48527;BME280;34317;51.660;5.824;2024-03-29T02:28:36;99082.81;;;12.19;48.61
48527;BME280;34317;51.660;5.824;2024-03-29T02:31:02;99095.72;;;12.24;48.12
48527;BME280;34317;51.660;5.824;2024-03-29T02:33:29;99084.88;;;12.27;48.25
48527;BME280;34317;51.660;5.824;2024-03-29T02:35:55;99087.13;;;12.32;48.19
48527;BME280;34317;51.660;5.824;2024-03-29T02:38:21;99088.59;;;12.36;48.09
48527;BME280;34317;51.660;5.824;2024-03-29T02:40:47;99084.72;;;12.40;48.32
48527;BME280;34317;51.660;5.824;2024-03-29T02:43:13;99068.53;;;12.43;48.33
48527;BME280;34317;51.660;5.824;2024-03-29T02:45:39;99085.06;;;12.46;47.93
48527;BME280;34317;51.660;5.824;2024-03-29T02:48:09;99094.59;;;12.49;48.20
48527;BME280;34317;51.660;5.824;2024-03-29T02:50:35;99088.19;;;12.52;48.11
48527;BME280;34317;51.660;5.824;2024-03-29T02:53:02;99089.75;;;12.54;48.31
48527;BME280;34317;51.660;5.824;2024-03-29T02:55:28;99107.25;;;12.57;48.15
48527;BME280;34317;51.660;5.824;2024-03-29T02:57:54;99104.47;;;12.58;48.13
48527;BME280;34317;51.660;5.824;2024-03-29T03:00:20;99091.91;;;12.60;48.20
48527;BME280;34317;51.660;5.824;2024-03-29T03:02:47;99105.91;;;12.62;48.24
48527;BME280;34317;51.660;5.824;2024-03-29T03:05:13;99105.66;;;12.65;48.30
48527;BME280;34317;51.660;5.824;2024-03-29T03:07:39;99107.34;;;12.66;48.30
48527;BME280;34317;51.660;5.824;2024-03-29T03:10:24;99117.72;;;12.70;48.26
48527;BME280;34317;51.660;5.824;2024-03-29T03:13:09;99120.13;;;12.73;48.33
48527;BME280;34317;51.660;5.824;2024-03-29T03:15:35;99118.06;;;12.76;48.43
48527;BME280;34317;51.660;5.824;2024-03-29T03:18:01;99131.22;;;12.78;48.44
48527;BME280;34317;51.660;5.824;2024-03-29T03:20:27;99136.28;;;12.81;48.57
48527;BME280;34317;51.660;5.824;2024-03-29T03:22:56;99129.03;;;12.83;48.65
48527;BME280;34317;51.660;5.824;2024-03-29T03:25:25;99125.41;;;12.84;48.61
48527;BME280;34317;51.660;5.824;2024-03-29T03:27:51;99127.09;;;12.85;48.64
48527;BME280;34317;51.660;5.824;2024-03-29T03:30:17;99129.75;;;12.85;48.80
48527;BME280;34317;51.660;5.824;2024-03-29T03:32:44;99127.09;;;12.85;48.78
48527;BME280;34317;51.660;5.824;2024-03-29T03:35:10;99135.06;;;12.85;48.87
48527;BME280;34317;51.660;5.824;2024-03-29T03:37:36;99123.44;;;12.86;49.05
48527;BME280;34317;51.660;5.824;2024-03-29T03:40:02;99128.75;;;12.86;49.15
48527;BME280;34317;51.660;5.824;2024-03-29T03:42:30;99126.09;;;12.86;49.14
48527;BME280;34317;51.660;5.824;2024-03-29T03:44:56;99111.88;;;12.87;49.35
48527;BME280;34317;51.660;5.824;2024-03-29T03:47:22;99125.16;;;12.87;49.24
48527;BME280;34317;51.660;5.824;2024-03-29T03:49:49;99137.44;;;12.88;49.35
48527;BME280;34317;51.660;5.824;2024-03-29T03:52:15;99132.03;;;12.90;49.35
48527;BME280;34317;51.660;5.824;2024-03-29T03:54:41;99132.13;;;12.88;49.26
48527;BME280;34317;51.660;5.824;2024-03-29T03:57:07;99132.13;;;12.88;49.28
48527;BME280;34317;51.660;5.824;2024-03-29T03:59:33;99125.16;;;12.87;49.28
48527;BME280;34317;51.660;5.824;2024-03-29T04:01:59;99131.31;;;12.88;49.41
48527;BME280;34317;51.660;5.824;2024-03-29T04:04:26;99149.19;;;12.85;49.42
48527;BME280;34317;51.660;5.824;2024-03-29T04:06:52;99137.72;;;12.85;49.57
48527;BME280;34317;51.660;5.824;2024-03-29T04:09:18;99144.97;;;12.83;49.48
48527;BME280;34317;51.660;5.824;2024-03-29T04:11:44;99148.59;;;12.82;49.70
48527;BME280;34317;51.660;5.824;2024-03-29T04:14:10;99141.59;;;12.81;49.65
48527;BME280;34317;51.660;5.824;2024-03-29T04:16:37;99132.88;;;12.79;49.80
48527;BME280;34317;51.660;5.824;2024-03-29T04:19:03;99140.16;;;12.77;49.71
48527;BME280;34317;51.660;5.824;2024-03-29T04:21:29;99152.72;;;12.75;49.71
48527;BME280;34317;51.660;5.824;2024-03-29T04:23:55;99137.03;;;12.72;49.65
48527;BME280;34317;51.660;5.824;2024-03-29T04:26:22;99138.97;;;12.70;49.83
48527;BME280;34317;51.660;5.824;2024-03-29T04:28:48;99142.81;;;12.65;50.08
48527;BME280;34317;51.660;5.824;2024-03-29T04:31:14;99153.72;;;12.62;50.06
48527;BME280;34317;51.660;5.824;2024-03-29T04:33:41;99156.63;;;12.59;50.20
48527;BME280;34317;51.660;5.824;2024-03-29T04:36:07;99140.19;;;12.54;50.38
48527;BME280;34317;51.660;5.824;2024-03-29T04:38:33;99135.16;;;12.51;50.48
48527;BME280;34317;51.660;5.824;2024-03-29T04:41:00;99130.06;;;12.48;50.46
48527;BME280;34317;51.660;5.824;2024-03-29T04:43:27;99135.63;;;12.45;50.90
48527;BME280;34317;51.660;5.824;2024-03-29T04:46:08;99139.50;;;12.41;51.16
48527;BME280;34317;51.660;5.824;2024-03-29T04:48:40;99145.06;;;12.38;51.11
48527;BME280;34317;51.660;5.824;2024-03-29T04:51:08;99154.22;;;12.34;51.35
48527;BME280;34317;51.660;5.824;2024-03-29T04:53:36;99149.19;;;12.31;51.49
48527;BME280;34317;51.660;5.824;2024-03-29T04:56:04;99155.44;;;12.30;51.86
48527;BME280;34317;51.660;5.824;2024-03-29T04:58:32;99146.03;;;12.25;51.84
48527;BME280;34317;51.660;5.824;2024-03-29T05:00:59;99137.34;;;12.23;51.93
48527;BME280;34317;51.660;5.824;2024-03-29T05:03:25;99149.91;;;12.21;52.04
48527;BME280;34317;51.660;5.824;2024-03-29T05:05:52;99139.53;;;12.18;52.18
48527;BME280;34317;51.660;5.824;2024-03-29T05:08:19;99142.31;;;12.17;52.22
48527;BME280;34317;51.660;5.824;2024-03-29T05:10:49;99145.09;;;12.15;52.23
48527;BME280;34317;51.660;5.824;2024-03-29T05:13:21;99144.47;;;12.12;52.43
48527;BME280;34317;51.660;5.824;2024-03-29T05:15:48;99134.94;;;12.09;52.56
48527;BME280;34317;51.660;5.824;2024-03-29T05:18:34;99140.50;;;12.06;52.72
48527;BME280;34317;51.660;5.824;2024-03-29T05:21:02;99142.44;;;12.04;52.66
48527;BME280;34317;51.660;5.824;2024-03-29T05:23:28;99135.44;;;12.03;52.82
48527;BME280;34317;51.660;5.824;2024-03-29T05:25:54;99139.06;;;12.02;52.60
48527;BME280;34317;51.660;5.824;2024-03-29T05:28:21;99144.47;;;12.00;52.63
48527;BME280;34317;51.660;5.824;2024-03-29T05:30:48;99148.19;;;11.98;52.49
48527;BME280;34317;51.660;5.824;2024-03-29T05:33:14;99146.53;;;11.97;52.26
48527;BME280;34317;51.660;5.824;2024-03-29T05:35:41;99133.38;;;11.95;52.39
48527;BME280;34317;51.660;5.824;2024-03-29T05:38:07;99137.84;;;11.95;52.42
48527;BME280;34317;51.660;5.824;2024-03-29T05:40:34;99134.22;;;11.96;52.34
48527;BME280;34317;51.660;5.824;2024-03-29T05:43:00;99128.91;;;11.96;52.26
48527;BME280;34317;51.660;5.824;2024-03-29T05:45:28;99127.22;;;11.95;52.10
48527;BME280;34317;51.660;5.824;2024-03-29T05:47:56;99137.00;;;11.94;52.30
48527;BME280;34317;51.660;5.824;2024-03-29T05:50:23;99121.94;;;11.95;52.37
48527;BME280;34317;51.660;5.824;2024-03-29T05:52:51;99119.28;;;11.95;52.31
48527;BME280;34317;51.660;5.824;2024-03-29T05:55:18;99144.81;;;11.96;52.25
48527;BME280;34317;51.660;5.824;2024-03-29T05:57:45;99139.78;;;11.93;52.22
48527;BME280;34317;51.660;5.824;2024-03-29T06:00:13;99147.84;;;11.91;52.18
48527;BME280;34317;51.660;5.824;2024-03-29T06:02:43;99150.63;;;11.90;52.32
48527;BME280;34317;51.660;5.824;2024-03-29T06:05:11;99154.22;;;11.88;52.28
48527;BME280;34317;51.660;5.824;2024-03-29T06:07:38;99164.84;;;11.88;52.44
48527;BME280;34317;51.660;5.824;2024-03-29T06:10:04;99161.41;;;11.86;52.29
48527;BME280;34317;51.660;5.824;2024-03-29T06:12:34;99158.91;;;11.85;52.49
48527;BME280;34317;51.660;5.824;2024-03-29T06:15:02;99163.34;;;11.84;52.39
48527;BME280;34317;51.660;5.824;2024-03-29T06:17:47;99173.34;;;11.81;52.40
48527;BME280;34317;51.660;5.824;2024-03-29T06:20:13;99176.16;;;11.79;52.64
48527;BME280;34317;51.660;5.824;2024-03-29T06:22:39;99169.13;;;11.78;52.69
48527;BME280;34317;51.660;5.824;2024-03-29T06:25:06;99174.44;;;11.78;52.55
48527;BME280;34317;51.660;5.824;2024-03-29T06:27:36;99176.38;;;11.76;52.55
48527;BME280;34317;51.660;5.824;2024-03-29T06:30:06;99162.16;;;11.77;52.55
48527;BME280;34317;51.660;5.824;2024-03-29T06:32:34;99141.06;;;11.76;52.44
48527;BME280;34317;51.660;5.824;2024-03-29T06:35:00;99147.31;;;11.75;52.45
48527;BME280;34317;51.660;5.824;2024-03-29T06:37:26;99148.16;;;11.75;52.80
48527;BME280;34317;51.660;5.824;2024-03-29T06:39:54;99152.50;;;11.76;52.71
48527;BME280;34317;51.660;5.824;2024-03-29T06:42:20;99155.88;;;11.78;52.77
48527;BME280;34317;51.660;5.824;2024-03-29T06:44:47;99154.94;;;11.79;52.97
48527;BME280;34317;51.660;5.824;2024-03-29T06:47:13;99151.06;;;11.83;52.91
48527;BME280;34317;51.660;5.824;2024-03-29T06:49:39;99147.44;;;11.84;53.03
48527;BME280;34317;51.660;5.824;2024-03-29T06:52:06;99158.03;;;11.84;52.93
48527;BME280;34317;51.660;5.824;2024-03-29T06:54:32;99142.75;;;11.88;53.17
48527;BME280;34317;51.660;5.824;2024-03-29T06:56:59;99138.91;;;11.92;53.12
48527;BME280;34317;51.660;5.824;2024-03-29T06:59:26;99136.16;;;11.94;53.05
48527;BME280;34317;51.660;5.824;2024-03-29T07:01:52;99135.19;;;11.95;53.05
48527;BME280;34317;51.660;5.824;2024-03-29T07:04:19;99125.53;;;11.94;53.02
48527;BME280;34317;51.660;5.824;2024-03-29T07:06:46;99134.22;;;11.96;53.17
48527;BME280;34317;51.660;5.824;2024-03-29T07:09:21;99144.00;;;11.95;52.95
48527;BME280;34317;51.660;5.824;2024-03-29T07:11:50;99138.56;;;11.97;53.11
48527;BME280;34317;51.660;5.824;2024-03-29T07:14:18;99142.88;;;11.98;53.08
48527;BME280;34317;51.660;5.824;2024-03-29T07:16:45;99142.06;;;11.97;53.44
48527;BME280;34317;51.660;5.824;2024-03-29T07:19:12;99135.69;;;12.00;53.16
48527;BME280;34317;51.660;5.824;2024-03-29T07:21:39;99150.63;;;12.01;53.40
48527;BME280;34317;51.660;5.824;2024-03-29T07:24:06;99159.91;;;12.06;53.25
48527;BME280;34317;51.660;5.824;2024-03-29T07:26:33;99159.56;;;12.11;53.25
48527;BME280;34317;51.660;5.824;2024-03-29T07:28:59;99175.22;;;12.14;53.17
48527;BME280;34317;51.660;5.824;2024-03-29T07:31:25;99175.00;;;12.17;53.36
48527;BME280;34317;51.660;5.824;2024-03-29T07:33:52;99180.06;;;12.20;53.43
48527;BME280;34317;51.660;5.824;2024-03-29T07:36:18;99188.50;;;12.25;53.33
48527;BME280;34317;51.660;5.824;2024-03-29T07:38:44;99184.63;;;12.30;53.47
48527;BME280;34317;51.660;5.824;2024-03-29T07:41:11;99192.25;;;12.34;53.53
48527;BME280;34317;51.660;5.824;2024-03-29T07:43:39;99191.16;;;12.37;53.41
48527;BME280;34317;51.660;5.824;2024-03-29T07:46:07;99174.72;;;12.43;53.50
48527;BME280;34317;51.660;5.824;2024-03-29T07:48:35;99164.72;;;12.46;53.36
48527;BME280;34317;51.660;5.824;2024-03-29T07:51:02;99186.56;;;12.50;53.55
48527;BME280;34317;51.660;5.824;2024-03-29T07:53:28;99189.94;;;12.52;53.46
48527;BME280;34317;51.660;5.824;2024-03-29T07:55:54;99189.47;;;12.58;53.67
48527;BME280;34317;51.660;5.824;2024-03-29T07:58:21;99186.66;;;12.60;53.82
48527;BME280;34317;51.660;5.824;2024-03-29T08:00:47;99188.97;;;12.64;53.82
48527;BME280;34317;51.660;5.824;2024-03-29T08:03:14;99174.47;;;12.69;53.83
48527;BME280;34317;51.660;5.824;2024-03-29T08:05:40;99170.59;;;12.73;53.73
48527;BME280;34317;51.660;5.824;2024-03-29T08:08:06;99170.34;;;12.76;53.72
48527;BME280;34317;51.660;5.824;2024-03-29T08:10:33;99166.47;;;12.80;53.74
48527;BME280;34317;51.660;5.824;2024-03-29T08:12:59;99159.94;;;12.84;53.85
48527;BME280;34317;51.660;5.824;2024-03-29T08:15:27;99155.09;;;12.89;53.81
48527;BME280;34317;51.660;5.824;2024-03-29T08:17:53;99157.38;;;12.94;53.88
48527;BME280;34317;51.660;5.824;2024-03-29T08:20:19;99159.66;;;12.98;53.96
48527;BME280;34317;51.660;5.824;2024-03-29T08:22:46;99167.25;;;13.03;53.89
48527;BME280;34317;51.660;5.824;2024-03-29T08:25:12;99167.13;;;13.04;53.81
48527;BME280;34317;51.660;5.824;2024-03-29T08:27:38;99170.38;;;13.08;53.85
48527;BME280;34317;51.660;5.824;2024-03-29T08:30:05;99148.88;;;13.11;53.90
48527;BME280;34317;51.660;5.824;2024-03-29T08:32:32;99148.59;;;13.14;53.88
48527;BME280;34317;51.660;5.824;2024-03-29T08:34:58;99161.53;;;13.19;53.83
48527;BME280;34317;51.660;5.824;2024-03-29T08:37:25;99175.53;;;13.21;53.90
48527;BME280;34317;51.660;5.824;2024-03-29T08:39:51;99183.97;;;13.26;53.96
48527;BME280;34317;51.660;5.824;2024-03-29T08:42:17;99169.34;;;13.32;53.92
48527;BME280;34317;51.660;5.824;2024-03-29T08:44:43;99179.59;;;13.36;53.88
48527;BME280;34317;51.660;5.824;2024-03-29T08:47:11;99172.09;;;13.41;54.06
48527;BME280;34317;51.660;5.824;2024-03-29T08:49:38;99173.25;;;13.49;53.90
48527;BME280;34317;51.660;5.824;2024-03-29T08:52:04;99180.00;;;13.53;53.96
48527;BME280;34317;51.660;5.824;2024-03-29T08:54:31;99174.16;;;13.59;53.83
48527;BME280;34317;51.660;5.824;2024-03-29T08:56:58;99184.28;;;13.65;54.07
48527;BME280;34317;51.660;5.824;2024-03-29T08:59:25;99201.41;;;13.72;53.90
48527;BME280;34317;51.660;5.824;2024-03-29T09:01:51;99206.19;;;13.78;53.92
48527;BME280;34317;51.660;5.824;2024-03-29T09:04:18;99208.38;;;13.85;53.74
48527;BME280;34317;51.660;5.824;2024-03-29T09:06:45;99201.53;;;13.92;53.98
48527;BME280;34317;51.660;5.824;2024-03-29T09:09:12;99201.03;;;13.98;53.85
48527;BME280;34317;51.660;5.824;2024-03-29T09:11:39;99196.00;;;14.05;53.95
48527;BME280;34317;51.660;5.824;2024-03-29T09:14:05;99188.34;;;14.11;53.85
48527;BME280;34317;51.660;5.824;2024-03-29T09:16:35;99189.63;;;14.17;53.87
48527;BME280;34317;51.660;5.824;2024-03-29T09:19:01;99208.31;;;14.27;54.03
48527;BME280;34317;51.660;5.824;2024-03-29T09:21:28;99212.72;;;14.37;54.04
48527;BME280;34317;51.660;5.824;2024-03-29T09:23:54;99200.13;;;14.49;53.98
48527;BME280;34317;51.660;5.824;2024-03-29T09:26:21;99193.41;;;14.55;53.94
48527;BME280;34317;51.660;5.824;2024-03-29T09:28:47;99206.09;;;14.63;53.83
48527;BME280;34317;51.660;5.824;2024-03-29T09:31:13;99207.25;;;14.70;53.96
48527;BME280;34317;51.660;5.824;2024-03-29T09:33:39;99203.31;;;14.74;53.88
48527;BME280;34317;51.660;5.824;2024-03-29T09:36:06;99212.72;;;14.78;53.72
48527;BME280;34317;51.660;5.824;2024-03-29T09:38:32;99210.50;;;14.83;53.74
48527;BME280;34317;51.660;5.824;2024-03-29T09:41:10;99209.25;;;14.87;53.91
48527;BME280;34317;51.660;5.824;2024-03-29T09:43:38;99210.38;;;14.94;53.92
48527;BME280;34317;51.660;5.824;2024-03-29T09:46:05;99227.22;;;15.05;53.85
48527;BME280;34317;51.660;5.824;2024-03-29T09:48:32;99233.44;;;15.15;54.00
48527;BME280;34317;51.660;5.824;2024-03-29T09:51:04;99235.16;;;15.26;54.13
48527;BME280;34317;51.660;5.824;2024-03-29T09:53:34;99240.47;;;15.35;53.98
48527;BME280;34317;51.660;5.824;2024-03-29T09:56:06;99232.34;;;15.47;53.87
48527;BME280;34317;51.660;5.824;2024-03-29T09:58:33;99243.84;;;15.57;53.82
48527;BME280;34317;51.660;5.824;2024-03-29T10:01:04;99254.38;;;15.68;53.78
48527;BME280;34317;51.660;5.824;2024-03-29T10:03:39;99252.88;;;15.75;53.86
48527;BME280;34317;51.660;5.824;2024-03-29T10:06:05;99241.34;;;15.85;53.70
48527;BME280;34317;51.660;5.824;2024-03-29T10:08:35;99235.16;;;15.94;53.71
48527;BME280;34317;51.660;5.824;2024-03-29T10:11:02;99252.28;;;16.01;53.75
48527;BME280;34317;51.660;5.824;2024-03-29T10:13:29;99253.25;;;16.10;53.63
48527;BME280;34317;51.660;5.824;2024-03-29T10:15:56;99244.38;;;16.19;53.58
48527;BME280;34317;51.660;5.824;2024-03-29T10:18:23;99230.28;;;16.27;53.50
48527;BME280;34317;51.660;5.824;2024-03-29T10:20:59;99230.41;;;16.35;53.53
48527;BME280;34317;51.660;5.824;2024-03-29T10:23:27;99230.50;;;16.43;53.43
48527;BME280;34317;51.660;5.824;2024-03-29T10:25:54;99234.16;;;16.52;53.42
48527;BME280;34317;51.660;5.824;2024-03-29T10:28:20;99223.41;;;16.62;53.27
48527;BME280;34317;51.660;5.824;2024-03-29T10:30:48;99228.44;;;16.65;52.96
48527;BME280;34317;51.660;5.824;2024-03-29T10:33:15;99228.44;;;16.65;52.84
48527;BME280;34317;51.660;5.824;2024-03-29T10:35:42;99240.69;;;16.67;52.85
48527;BME280;34317;51.660;5.824;2024-03-29T10:38:12;99245.56;;;16.72;53.00
48527;BME280;34317;51.660;5.824;2024-03-29T10:40:39;99237.97;;;16.77;52.83
48527;BME280;34317;51.660;5.824;2024-03-29T10:43:09;99234.72;;;16.83;52.85
48527;BME280;34317;51.660;5.824;2024-03-29T10:45:39;99243.84;;;16.90;52.80
48527;BME280;34317;51.660;5.824;2024-03-29T10:48:06;99239.25;;;17.01;52.96
48527;BME280;34317;51.660;5.824;2024-03-29T10:50:36;99231.88;;;17.12;53.23
48527;BME280;34317;51.660;5.824;2024-03-29T10:53:03;99235.16;;;17.24;52.67
48527;BME280;34317;51.660;5.824;2024-03-29T10:55:29;99237.63;;;17.36;52.70
48527;BME280;34317;51.660;5.824;2024-03-29T10:58:00;99242.06;;;17.45;52.62
48527;BME280;34317;51.660;5.824;2024-03-29T11:00:29;99247.34;;;17.55;52.65
48527;BME280;34317;51.660;5.824;2024-03-29T11:02:57;99259.81;;;17.64;52.23
48527;BME280;34317;51.660;5.824;2024-03-29T11:05:33;99272.72;;;17.68;52.20
48527;BME280;34317;51.660;5.824;2024-03-29T11:08:02;99275.09;;;17.71;51.92
48527;BME280;34317;51.660;5.824;2024-03-29T11:10:36;99269.44;;;17.75;51.99
48527;BME280;34317;51.660;5.824;2024-03-29T11:15:50;99259.66;;;17.65;51.41
48527;BME280;34317;51.660;5.824;2024-03-29T11:18:17;99256.59;;;17.60;51.50
48527;BME280;34317;51.660;5.824;2024-03-29T11:20:46;99247.88;;;17.58;51.59
48527;BME280;34317;51.660;5.824;2024-03-29T11:23:21;99234.34;;;17.60;51.64
48527;BME280;34317;51.660;5.824;2024-03-29T11:25:51;99227.53;;;17.65;51.66
48527;BME280;34317;51.660;5.824;2024-03-29T11:28:38;99221.53;;;17.71;51.44
48527;BME280;34317;51.660;5.824;2024-03-29T11:31:08;99227.44;;;17.75;51.33
48527;BME280;34317;51.660;5.824;2024-03-29T11:33:43;99234.16;;;17.79;51.33
48527;BME280;34317;51.660;5.824;2024-03-29T11:36:12;99250.75;;;17.83;51.04
48527;BME280;34317;51.660;5.824;2024-03-29T11:38:40;99260.50;;;17.84;50.88
48527;BME280;34317;51.660;5.824;2024-03-29T11:41:10;99273.59;;;17.87;50.97
48527;BME280;34317;51.660;5.824;2024-03-29T11:43:37;99269.94;;;17.88;50.97
48527;BME280;34317;51.660;5.824;2024-03-29T11:46:08;99280.63;;;17.88;50.62
48527;BME280;34317;51.660;5.824;2024-03-29T11:48:36;99272.28;;;17.91;50.87
48527;BME280;34317;51.660;5.824;2024-03-29T11:51:03;99271.00;;;17.95;50.79
48527;BME280;34317;51.660;5.824;2024-03-29T11:53:31;99273.72;;;18.03;50.79
48527;BME280;34317;51.660;5.824;2024-03-29T11:56:01;99270.41;;;18.09;50.86
48527;BME280;34317;51.660;5.824;2024-03-29T11:58:29;99267.81;;;18.18;50.77
48527;BME280;34317;51.660;5.824;2024-03-29T12:00:57;99268.16;;;18.23;50.56
48527;BME280;34317;51.660;5.824;2024-03-29T12:03:28;99277.09;;;18.32;50.46
48527;BME280;34317;51.660;5.824;2024-03-29T12:05:56;99284.34;;;18.39;50.47
48527;BME280;34317;51.660;5.824;2024-03-29T12:08:32;99298.47;;;18.49;50.39
48527;BME280;34317;51.660;5.824;2024-03-29T12:10:59;99288.97;;;18.55;50.16
48527;BME280;34317;51.660;5.824;2024-03-29T12:13:26;99282.47;;;18.58;49.98
48527;BME280;34317;51.660;5.824;2024-03-29T12:15:53;99301.22;;;18.58;49.87
48527;BME280;34317;51.660;5.824;2024-03-29T12:18:21;99299.06;;;18.61;49.63
48527;BME280;34317;51.660;5.824;2024-03-29T12:20:48;99303.28;;;18.64;49.35
48527;BME280;34317;51.660;5.824;2024-03-29T12:23:16;99291.22;;;18.68;49.52
48527;BME280;34317;51.660;5.824;2024-03-29T12:25:44;99287.06;;;18.74;49.51
48527;BME280;34317;51.660;5.824;2024-03-29T12:28:11;99291.97;;;18.78;49.46
48527;BME280;34317;51.660;5.824;2024-03-29T12:30:42;99286.66;;;18.86;49.26
48527;BME280;34317;51.660;5.824;2024-03-29T12:33:11;99287.38;;;18.97;49.28
48527;BME280;34317;51.660;5.824;2024-03-29T12:35:42;99279.34;;;19.05;49.21
48527;BME280;34317;51.660;5.824;2024-03-29T12:38:15;99281.75;;;19.16;49.21
48527;BME280;34317;51.660;5.824;2024-03-29T12:40:43;99288.66;;;19.27;48.89
48527;BME280;34317;51.660;5.824;2024-03-29T12:43:10;99283.13;;;19.37;49.10
48527;BME280;34317;51.660;5.824;2024-03-29T12:45:41;99296.56;;;19.45;48.86
48527;BME280;34317;51.660;5.824;2024-03-29T12:48:18;99295.91;;;19.51;48.60
48527;BME280;34317;51.660;5.824;2024-03-29T12:50:46;99278.13;;;19.58;48.59
48527;BME280;34317;51.660;5.824;2024-03-29T12:53:15;99287.53;;;19.62;48.54
48527;BME280;34317;51.660;5.824;2024-03-29T12:55:45;99288.03;;;19.66;48.00
48527;BME280;34317;51.660;5.824;2024-03-29T12:58:16;99280.16;;;19.64;48.09
48527;BME280;34317;51.660;5.824;2024-03-29T13:00:44;99289.91;;;19.65;48.01
48527;BME280;34317;51.660;5.824;2024-03-29T13:03:11;99285.19;;;19.68;48.00
48527;BME280;34317;51.660;5.824;2024-03-29T13:05:39;99272.16;;;19.73;47.84
48527;BME280;34317;51.660;5.824;2024-03-29T13:08:10;99282.53;;;19.76;47.76
48527;BME280;34317;51.660;5.824;2024-03-29T13:10:37;99283.91;;;19.80;47.64